Time;durP1;ratioP1;P1;durP2;ratioP2;P2;SDS_P1;SDS_P2;PMS_P1;PMS_P2;Temp;Humidity;BMP_temperature;BMP_pressure;BME280_temperature;BME280_humidity;BME280_pressure;Samples;Min_cycle;Max_cycle;Signal;HPM_P1;HPM_P2
2020/12/10 00:05:47;;;;;;;66.33;24.92;;;;;;;-0.76;100.00;100517.77;10667859;82;21088;-85
2020/12/10 00:20:52;;;;;;;58.52;26.17;;;;;;;-0.75;100.00;100527.16;10639584;82;21029;-85
2020/12/10 00:35:57;;;;;;;59.58;26.00;;;;;;;-0.86;100.00;100516.83;10743519;80;21466;-85
2020/12/10 00:51:02;;;;;;;62.47;23.97;;;;;;;-0.89;100.00;100498.06;10842904;82;21021;-85
2020/12/10 01:06:12;;;;;;;90.73;30.37;;;;;;;-0.86;100.00;100496.65;10749706;82;21427;-86
2020/12/10 01:21:27;;;;;;;47.70;22.32;;;;;;;-0.72;100.00;100478.11;10760637;82;21018;-86
2020/12/10 01:36:32;;;;;;;64.58;27.22;;;;;;;-0.82;100.00;100462.14;10847647;81;21072;-87
2020/12/10 01:51:37;;;;;;;129.60;44.60;;;;;;;-0.78;100.00;100449.56;10779283;82;21067;-89
2020/12/10 02:06:42;;;;;;;56.92;28.38;;;;;;;-0.87;100.00;100434.42;10750438;82;21072;-85
2020/12/10 02:21:46;;;;;;;62.20;23.73;;;;;;;-0.98;100.00;100404.39;10785593;82;21064;-87
2020/12/10 02:36:51;;;;;;;72.03;28.83;;;;;;;-0.84;100.00;100392.66;10758103;82;21563;-84
2020/12/10 02:51:55;;;;;;;48.50;20.27;;;;;;;-1.15;100.00;100372.38;10763418;82;21069;-86
2020/12/10 03:06:59;;;;;;;53.25;22.15;;;;;;;-1.07;100.00;100345.91;10416162;84;21101;-86
2020/12/10 03:22:04;;;;;;;63.58;28.02;;;;;;;-1.16;100.00;100329.53;10745825;81;21079;-88
2020/12/10 03:37:08;;;;;;;70.57;23.57;;;;;;;-1.22;100.00;100312.56;10800661;81;21442;-84
2020/12/10 03:52:13;;;;;;;70.00;26.65;;;;;;;-1.13;100.00;100298.51;10838830;82;21118;-90
2020/12/10 04:07:17;;;;;;;78.12;26.65;;;;;;;-1.52;100.00;100290.12;10840143;82;21477;-87
2020/12/10 04:22:22;;;;;;;64.22;21.77;;;;;;;-1.54;100.00;100286.33;10829617;81;21507;-89
2020/12/10 04:37:27;;;;;;;49.60;22.00;;;;;;;-1.45;100.00;100279.15;10748692;82;21478;-90
2020/12/10 04:52:33;;;;;;;67.60;21.70;;;;;;;-1.47;100.00;100278.39;10714125;82;21059;-88
2020/12/10 05:07:40;;;;;;;46.50;17.03;;;;;;;-1.52;100.00;100275.97;10729063;82;21069;-90
2020/12/10 05:22:46;;;;;;;42.53;16.73;;;;;;;-1.63;100.00;100264.81;10747404;82;21015;-90
2020/12/10 05:37:52;;;;;;;114.70;40.90;;;;;;;-1.51;100.00;100263.05;10816336;81;21099;-88
2020/12/10 05:53:08;;;;;;;37.65;16.12;;;;;;;-1.48;100.00;100264.66;10782010;81;21012;-87
2020/12/10 06:08:12;;;;;;;64.60;27.73;;;;;;;-1.64;100.00;100255.41;10868839;82;21529;-85
2020/12/10 06:23:36;;;;;;;66.42;25.50;;;;;;;-1.54;100.00;100237.90;10628875;83;21065;-83
2020/12/10 06:38:43;;;;;;;100.12;35.68;;;;;;;-1.53;100.00;100244.27;10724398;82;21008;-85
2020/12/10 06:54:09;;;;;;;42.90;16.75;;;;;;;-1.47;100.00;100243.64;10797199;82;21171;-84
2020/12/10 07:09:14;;;;;;;46.30;18.17;;;;;;;-1.55;100.00;100236.22;10806592;82;21230;-84
2020/12/10 07:24:19;;;;;;;124.82;41.98;;;;;;;-1.60;100.00;100223.52;10777315;82;21061;-85
2020/12/10 07:39:30;;;;;;;87.17;37.85;;;;;;;-1.59;100.00;100239.34;10726876;82;21045;-84
2020/12/10 07:54:56;;;;;;;140.60;46.55;;;;;;;-1.51;100.00;100236.02;10782304;81;21131;-83
2020/12/10 08:10:01;;;;;;;94.30;37.70;;;;;;;-1.53;100.00;100222.39;10740006;82;21001;-84
2020/12/10 08:25:15;;;;;;;121.00;43.68;;;;;;;-1.44;100.00;100213.92;10748645;82;21483;-86
2020/12/10 08:40:28;;;;;;;125.97;44.65;;;;;;;-1.58;100.00;100205.01;10719915;82;21052;-85
2020/12/10 08:55:41;;;;;;;99.47;32.40;;;;;;;-1.05;100.00;100201.18;10771056;81;21064;-85
2020/12/10 09:10:47;;;;;;;102.60;34.35;;;;;;;-1.07;100.00;100178.97;10759797;82;21457;-82
2020/12/10 09:25:51;;;;;;;135.23;49.50;;;;;;;-1.11;100.00;100164.55;10805353;82;21116;-82
2020/12/10 09:40:56;;;;;;;144.43;58.17;;;;;;;-0.93;100.00;100159.09;10750328;82;21020;-84
2020/12/10 09:56:35;;;;;;;90.25;32.50;;;;;;;-0.80;100.00;100148.64;10680491;82;21017;-83
2020/12/10 10:11:30;;;;;;;274.23;95.25;;;;;;;-0.94;100.00;100131.19;10672592;82;21075;-83
2020/12/10 10:26:35;;;;;;;133.35;53.02;;;;;;;-0.80;100.00;100116.44;10683424;82;21487;-82
2020/12/10 10:41:44;;;;;;;105.45;40.30;;;;;;;-0.73;100.00;100105.42;10618792;82;21064;-82
2020/12/10 10:56:49;;;;;;;267.15;93.85;;;;;;;-0.71;100.00;100089.45;10592614;82;21064;-85
2020/12/10 11:11:54;;;;;;;532.00;188.00;;;;;;;-0.68;100.00;100088.84;10628775;83;21454;-83
2020/12/10 11:27:00;;;;;;;160.00;54.67;;;;;;;-0.70;100.00;100076.50;10576259;83;21032;-83
2020/12/10 11:42:04;;;;;;;;;;;;;;;-0.71;100.00;100055.95;10619854;82;21101;-83
2020/12/10 11:57:09;;;;;;;207.47;79.32;;;;;;;-0.68;100.00;100042.92;10614005;82;20168;-82
2020/12/10 12:12:13;;;;;;;382.02;91.08;;;;;;;-0.69;100.00;100030.52;10614584;82;21028;-83
2020/12/10 12:27:17;;;;;;;113.40;39.78;;;;;;;-0.70;100.00;100012.52;10604838;82;21134;-82
2020/12/10 12:42:22;;;;;;;164.85;45.63;;;;;;;-0.42;100.00;100004.80;10328728;85;21018;-82
2020/12/10 12:57:27;;;;;;;176.18;55.00;;;;;;;-0.53;100.00;100010.45;10243142;85;21254;-82
2020/12/10 13:12:31;;;;;;;236.22;79.70;;;;;;;-0.39;100.00;100011.12;10516899;83;21084;-82
2020/12/10 13:27:36;;;;;;;120.13;37.15;;;;;;;-0.48;100.00;100005.11;10462943;83;21405;-82
2020/12/10 13:42:41;;;;;;;460.40;131.90;;;;;;;-0.43;100.00;99985.94;10550312;83;21095;-82
2020/12/10 13:57:46;;;;;;;189.67;56.50;;;;;;;-0.21;100.00;99974.59;10513236;82;21115;-85
2020/12/10 14:12:51;;;;;;;264.80;63.40;;;;;;;-0.41;100.00;99971.24;10540316;82;21040;-84
2020/12/10 14:27:55;;;;;;;308.52;93.80;;;;;;;-0.21;100.00;99962.98;10596524;82;21080;-83
2020/12/10 14:42:59;;;;;;;213.30;60.80;;;;;;;-0.37;100.00;99956.44;10539556;82;22038;-82
2020/12/10 14:58:04;;;;;;;168.62;59.85;;;;;;;-0.30;100.00;99957.84;10574020;83;21084;-82
2020/12/10 15:13:09;;;;;;;209.07;80.00;;;;;;;-0.27;100.00;99965.41;10542323;83;21033;-82
2020/12/10 15:28:14;;;;;;;174.33;57.63;;;;;;;-0.20;100.00;99959.06;10536407;83;21105;-82
2020/12/10 15:43:19;;;;;;;157.97;61.75;;;;;;;-0.22;100.00;99954.42;10770027;80;21575;-83
2020/12/10 15:58:24;;;;;;;605.60;296.33;;;;;;;-0.07;100.00;99942.98;10701688;81;21061;-83
2020/12/10 16:13:29;;;;;;;251.92;121.45;;;;;;;-0.09;100.00;99930.17;10744021;80;21128;-83
2020/12/10 16:28:34;;;;;;;86.67;36.88;;;;;;;-0.01;100.00;99932.37;10493398;84;21471;-83
2020/12/10 16:43:39;;;;;;;124.87;45.33;;;;;;;-0.14;100.00;99919.24;10498570;82;21053;-84
2020/12/10 16:58:44;;;;;;;134.55;46.42;;;;;;;0.01;100.00;99914.23;10635888;82;21123;-83
2020/12/10 17:13:49;;;;;;;102.87;37.08;;;;;;;-0.11;100.00;99915.21;10554261;82;21036;-83
2020/12/10 17:28:53;;;;;;;135.80;44.73;;;;;;;-0.10;100.00;99908.33;10478983;83;21076;-84
2020/12/10 17:43:57;;;;;;;201.95;63.38;;;;;;;0.03;100.00;99902.08;10574163;82;21049;-83
2020/12/10 17:59:03;;;;;;;186.13;82.23;;;;;;;-0.06;100.00;99887.45;10849479;82;21104;-83
2020/12/10 18:14:08;;;;;;;169.60;57.53;;;;;;;0.09;100.00;99880.70;10845596;82;21009;-84
2020/12/10 18:29:15;;;;;;;102.22;40.15;;;;;;;0.08;100.00;99887.20;10814645;81;21008;-83
2020/12/10 18:44:23;;;;;;;172.13;58.68;;;;;;;0.13;100.00;99883.50;10776024;81;21048;-83
2020/12/10 18:59:30;;;;;;;161.28;57.17;;;;;;;0.15;100.00;99873.92;10782930;82;21021;-85
2020/12/10 19:14:34;;;;;;;231.10;71.47;;;;;;;0.18;100.00;99874.69;10781259;82;21092;-79
2020/12/10 19:29:38;;;;;;;181.02;59.70;;;;;;;0.13;100.00;99860.28;10785896;82;21045;-79
2020/12/10 19:44:47;;;;;;;385.25;105.30;;;;;;;0.16;100.00;99867.03;10744661;82;21064;-79
2020/12/10 19:59:54;;;;;;;159.22;48.85;;;;;;;0.16;100.00;99854.95;10750895;82;21032;-82
2020/12/10 20:15:02;;;;;;;140.17;42.30;;;;;;;0.10;100.00;99848.81;10723031;82;21045;-87
2020/12/10 20:30:07;;;;;;;110.88;41.30;;;;;;;0.11;100.00;99853.53;10677235;82;21588;-83
2020/12/10 20:45:13;;;;;;;171.35;52.62;;;;;;;0.12;100.00;99840.55;10539626;82;21069;-84
2020/12/10 21:00:18;;;;;;;222.07;65.12;;;;;;;0.18;100.00;99842.44;10560073;82;21066;-81
2020/12/10 21:15:23;;;;;;;65.97;26.73;;;;;;;0.06;100.00;99836.17;10557480;82;21438;-80
2020/12/10 21:30:27;;;;;;;168.45;51.80;;;;;;;-0.02;100.00;99832.69;10533624;83;21434;-81
2020/12/10 21:45:32;;;;;;;145.77;41.13;;;;;;;0.08;100.00;99840.78;10361441;85;21040;-80
2020/12/10 22:00:36;;;;;;;85.25;31.85;;;;;;;0.03;100.00;99842.31;10453628;83;21129;-80
2020/12/10 22:15:41;;;;;;;75.67;30.02;;;;;;;0.08;100.00;99842.06;10406351;84;21120;-82
2020/12/10 22:30:49;;;;;;;87.72;32.00;;;;;;;0.10;100.00;99846.23;10791805;81;21027;-84
2020/12/10 22:45:52;;;;;;;85.07;33.28;;;;;;;0.14;100.00;99836.60;10699180;82;21033;-81
2020/12/10 23:00:58;;;;;;;55.92;25.35;;;;;;;0.16;100.00;99813.68;10714352;82;21087;-82
2020/12/10 23:16:04;;;;;;;49.15;21.02;;;;;;;0.24;100.00;99814.57;10743823;82;21115;-82
2020/12/10 23:31:08;;;;;;;52.67;23.85;;;;;;;0.28;100.00;99810.09;10644535;82;21088;-84
2020/12/10 23:46:15;;;;;;;64.75;24.72;;;;;;;0.43;100.00;99811.84;10532097;82;21473;-83
